sensor_id;sensor_type;location;lat;lon;timestamp;temperature;humidity
63771;DHT22;60282;43.862;18.430;2023-02-26T00:01:17;10.20;99.90
63771;DHT22;60282;43.862;18.430;2023-02-26T00:03:48;10.30;99.90
63771;DHT22;60282;43.862;18.430;2023-02-26T00:06:26;8.90;99.90
63771;DHT22;60282;43.862;18.430;2023-02-26T00:08:53;10.20;99.90
63771;DHT22;60282;43.862;18.430;2023-02-26T00:11:18;10.30;99.90
63771;DHT22;60282;43.862;18.430;2023-02-26T00:13:45;10.30;99.90
63771;DHT22;60282;43.862;18.430;2023-02-26T00:16:23;10.30;99.90
63771;DHT22;60282;43.862;18.430;2023-02-26T00:18:49;10.40;99.90
63771;DHT22;60282;43.862;18.430;2023-02-26T00:21:15;10.50;99.90
63771;DHT22;60282;43.862;18.430;2023-02-26T00:23:41;9.60;99.90
63771;DHT22;60282;43.862;18.430;2023-02-26T00:26:07;10.60;99.90
63771;DHT22;60282;43.862;18.430;2023-02-26T00:28:33;10.50;99.90
63771;DHT22;60282;43.862;18.430;2023-02-26T00:30:59;10.70;99.90
63771;DHT22;60282;43.862;18.430;2023-02-26T00:33:25;10.50;99.90
63771;DHT22;60282;43.862;18.430;2023-02-26T00:35:52;10.40;99.90
63771;DHT22;60282;43.862;18.430;2023-02-26T00:38:18;10.30;99.90
63771;DHT22;60282;43.862;18.430;2023-02-26T00:40:45;10.30;99.90
63771;DHT22;60282;43.862;18.430;2023-02-26T00:43:16;10.30;99.90
63771;DHT22;60282;43.862;18.430;2023-02-26T00:48:29;10.30;99.90
63771;DHT22;60282;43.862;18.430;2023-02-26T00:53:33;10.30;99.90
63771;DHT22;60282;43.862;18.430;2023-02-26T00:56:03;10.30;99.90
63771;DHT22;60282;43.862;18.430;2023-02-26T00:58:28;10.30;99.90
63771;DHT22;60282;43.862;18.430;2023-02-26T01:00:56;10.30;99.90
63771;DHT22;60282;43.862;18.430;2023-02-26T01:03:22;10.30;99.90
63771;DHT22;60282;43.862;18.430;2023-02-26T01:05:48;10.30;99.90
63771;DHT22;60282;43.862;18.430;2023-02-26T01:08:18;10.40;99.90
63771;DHT22;60282;43.862;18.430;2023-02-26T01:10:50;10.40;99.90
63771;DHT22;60282;43.862;18.430;2023-02-26T01:13:16;10.30;99.90
63771;DHT22;60282;43.862;18.430;2023-02-26T01:15:43;8.40;99.90
63771;DHT22;60282;43.862;18.430;2023-02-26T01:18:14;10.30;99.90
63771;DHT22;60282;43.862;18.430;2023-02-26T01:20:45;10.20;99.90
63771;DHT22;60282;43.862;18.430;2023-02-26T01:23:13;10.30;99.90
63771;DHT22;60282;43.862;18.430;2023-02-26T01:25:52;12.10;99.90
63771;DHT22;60282;43.862;18.430;2023-02-26T01:28:22;10.30;99.90
63771;DHT22;60282;43.862;18.430;2023-02-26T01:30:48;10.40;99.90
63771;DHT22;60282;43.862;18.430;2023-02-26T01:35:45;10.30;99.90
63771;DHT22;60282;43.862;18.430;2023-02-26T01:41:06;10.20;99.90
63771;DHT22;60282;43.862;18.430;2023-02-26T01:49:12;10.30;99.90
63771;DHT22;60282;43.862;18.430;2023-02-26T01:51:12;10.30;99.90
63771;DHT22;60282;43.862;18.430;2023-02-26T01:53:38;10.30;99.90
63771;DHT22;60282;43.862;18.430;2023-02-26T01:56:05;10.30;99.90
63771;DHT22;60282;43.862;18.430;2023-02-26T01:58:34;10.30;99.90
63771;DHT22;60282;43.862;18.430;2023-02-26T02:01:01;10.30;99.90
63771;DHT22;60282;43.862;18.430;2023-02-26T02:03:27;10.30;99.90
63771;DHT22;60282;43.862;18.430;2023-02-26T02:05:55;10.20;99.90
63771;DHT22;60282;43.862;18.430;2023-02-26T02:08:22;10.20;99.90
63771;DHT22;60282;43.862;18.430;2023-02-26T02:10:49;10.10;99.90
63771;DHT22;60282;43.862;18.430;2023-02-26T02:13:28;10.20;99.90
63771;DHT22;60282;43.862;18.430;2023-02-26T02:16:07;10.10;99.90
63771;DHT22;60282;43.862;18.430;2023-02-26T02:31:39;9.90;99.90
63771;DHT22;60282;43.862;18.430;2023-02-26T02:36:57;9.90;99.90
63771;DHT22;60282;43.862;18.430;2023-02-26T02:39:25;10.00;99.90
63771;DHT22;60282;43.862;18.430;2023-02-26T02:41:53;9.60;99.90
63771;DHT22;60282;43.862;18.430;2023-02-26T02:44:19;9.80;99.90
63771;DHT22;60282;43.862;18.430;2023-02-26T02:46:46;9.80;99.90
63771;DHT22;60282;43.862;18.430;2023-02-26T02:49:15;7.80;99.90
63771;DHT22;60282;43.862;18.430;2023-02-26T02:51:48;9.80;99.90
63771;DHT22;60282;43.862;18.430;2023-02-26T02:54:27;9.80;99.90
63771;DHT22;60282;43.862;18.430;2023-02-26T02:56:54;9.70;99.90
63771;DHT22;60282;43.862;18.430;2023-02-26T02:59:22;9.60;99.90
63771;DHT22;60282;43.862;18.430;2023-02-26T03:01:51;9.60;99.90
63771;DHT22;60282;43.862;18.430;2023-02-26T03:04:18;9.50;99.90
63771;DHT22;60282;43.862;18.430;2023-02-26T03:06:44;9.50;99.90
63771;DHT22;60282;43.862;18.430;2023-02-26T03:09:11;9.30;99.90
63771;DHT22;60282;43.862;18.430;2023-02-26T03:11:37;9.30;99.90
63771;DHT22;60282;43.862;18.430;2023-02-26T03:14:04;9.20;99.90
63771;DHT22;60282;43.862;18.430;2023-02-26T03:21:44;9.40;99.90
63771;DHT22;60282;43.862;18.430;2023-02-26T03:24:16;9.50;99.90
63771;DHT22;60282;43.862;18.430;2023-02-26T03:26:47;9.50;99.90
63771;DHT22;60282;43.862;18.430;2023-02-26T03:29:37;9.50;99.90
63771;DHT22;60282;43.862;18.430;2023-02-26T03:32:08;9.50;99.90
63771;DHT22;60282;43.862;18.430;2023-02-26T03:34:37;9.60;99.90
63771;DHT22;60282;43.862;18.430;2023-02-26T03:40:02;9.50;99.90
63771;DHT22;60282;43.862;18.430;2023-02-26T03:42:35;9.40;99.90
63771;DHT22;60282;43.862;18.430;2023-02-26T03:47:28;9.30;99.90
63771;DHT22;60282;43.862;18.430;2023-02-26T03:49:55;9.30;99.90
63771;DHT22;60282;43.862;18.430;2023-02-26T03:52:23;9.20;99.90
63771;DHT22;60282;43.862;18.430;2023-02-26T03:55:12;9.20;99.90
63771;DHT22;60282;43.862;18.430;2023-02-26T03:57:35;9.20;99.90
63771;DHT22;60282;43.862;18.430;2023-02-26T04:00:02;9.20;99.90
63771;DHT22;60282;43.862;18.430;2023-02-26T04:02:31;9.20;99.90
63771;DHT22;60282;43.862;18.430;2023-02-26T04:07:41;9.20;99.90
63771;DHT22;60282;43.862;18.430;2023-02-26T04:10:08;9.10;99.90
63771;DHT22;60282;43.862;18.430;2023-02-26T04:12:34;9.00;99.90
63771;DHT22;60282;43.862;18.430;2023-02-26T04:15:00;9.00;99.90
63771;DHT22;60282;43.862;18.430;2023-02-26T04:17:26;9.00;99.90
63771;DHT22;60282;43.862;18.430;2023-02-26T04:19:54;9.00;99.90
63771;DHT22;60282;43.862;18.430;2023-02-26T04:22:19;8.90;99.90
63771;DHT22;60282;43.862;18.430;2023-02-26T04:24:45;8.60;99.90
63771;DHT22;60282;43.862;18.430;2023-02-26T04:27:10;8.30;99.90
63771;DHT22;60282;43.862;18.430;2023-02-26T04:29:36;8.10;99.90
63771;DHT22;60282;43.862;18.430;2023-02-26T04:32:02;7.70;99.90
63771;DHT22;60282;43.862;18.430;2023-02-26T04:34:27;7.30;99.90
63771;DHT22;60282;43.862;18.430;2023-02-26T04:36:54;7.00;99.90
63771;DHT22;60282;43.862;18.430;2023-02-26T04:39:19;6.70;99.90
63771;DHT22;60282;43.862;18.430;2023-02-26T04:41:45;6.40;99.90
63771;DHT22;60282;43.862;18.430;2023-02-26T04:44:12;6.30;99.90
63771;DHT22;60282;43.862;18.430;2023-02-26T04:46:40;6.10;99.90
63771;DHT22;60282;43.862;18.430;2023-02-26T04:49:06;6.00;99.90
63771;DHT22;60282;43.862;18.430;2023-02-26T04:51:31;5.80;99.90
63771;DHT22;60282;43.862;18.430;2023-02-26T04:54:00;5.60;99.90
63771;DHT22;60282;43.862;18.430;2023-02-26T04:56:28;5.60;99.90
63771;DHT22;60282;43.862;18.430;2023-02-26T04:58:54;5.50;99.90
63771;DHT22;60282;43.862;18.430;2023-02-26T05:01:20;5.20;99.90
63771;DHT22;60282;43.862;18.430;2023-02-26T05:03:46;5.20;99.90
63771;DHT22;60282;43.862;18.430;2023-02-26T05:06:16;5.10;99.90
63771;DHT22;60282;43.862;18.430;2023-02-26T05:08:41;5.10;99.90
63771;DHT22;60282;43.862;18.430;2023-02-26T05:11:08;3.80;99.90
63771;DHT22;60282;43.862;18.430;2023-02-26T05:13:35;5.10;99.90
63771;DHT22;60282;43.862;18.430;2023-02-26T05:16:01;5.00;99.90
63771;DHT22;60282;43.862;18.430;2023-02-26T05:18:26;4.90;99.90
63771;DHT22;60282;43.862;18.430;2023-02-26T05:20:52;4.90;99.90
63771;DHT22;60282;43.862;18.430;2023-02-26T05:23:20;4.80;99.90
63771;DHT22;60282;43.862;18.430;2023-02-26T05:25:47;4.60;99.90
63771;DHT22;60282;43.862;18.430;2023-02-26T05:28:12;1.70;99.90
63771;DHT22;60282;43.862;18.430;2023-02-26T05:30:38;4.60;99.90
63771;DHT22;60282;43.862;18.430;2023-02-26T05:33:04;4.50;99.90
63771;DHT22;60282;43.862;18.430;2023-02-26T05:35:31;4.40;99.90
63771;DHT22;60282;43.862;18.430;2023-02-26T05:37:57;4.30;99.90
63771;DHT22;60282;43.862;18.430;2023-02-26T05:40:24;4.20;99.90
63771;DHT22;60282;43.862;18.430;2023-02-26T05:42:53;4.20;99.90
63771;DHT22;60282;43.862;18.430;2023-02-26T05:45:19;4.10;99.90
63771;DHT22;60282;43.862;18.430;2023-02-26T05:47:44;5.10;99.90
63771;DHT22;60282;43.862;18.430;2023-02-26T05:50:10;4.20;99.90
63771;DHT22;60282;43.862;18.430;2023-02-26T05:52:36;4.10;99.90
63771;DHT22;60282;43.862;18.430;2023-02-26T05:55:02;4.10;99.90
63771;DHT22;60282;43.862;18.430;2023-02-26T05:57:28;3.90;99.90
63771;DHT22;60282;43.862;18.430;2023-02-26T05:59:54;3.70;99.90
63771;DHT22;60282;43.862;18.430;2023-02-26T06:02:19;3.50;99.90
63771;DHT22;60282;43.862;18.430;2023-02-26T06:04:45;3.30;99.90
63771;DHT22;60282;43.862;18.430;2023-02-26T06:07:10;3.10;99.90
63771;DHT22;60282;43.862;18.430;2023-02-26T06:09:36;2.90;99.90
63771;DHT22;60282;43.862;18.430;2023-02-26T06:12:02;2.20;99.90
63771;DHT22;60282;43.862;18.430;2023-02-26T06:14:27;2.40;99.90
63771;DHT22;60282;43.862;18.430;2023-02-26T06:16:53;2.30;99.90
63771;DHT22;60282;43.862;18.430;2023-02-26T06:19:18;2.20;99.90
63771;DHT22;60282;43.862;18.430;2023-02-26T06:21:46;2.10;99.90
63771;DHT22;60282;43.862;18.430;2023-02-26T06:24:11;1.90;99.90
63771;DHT22;60282;43.862;18.430;2023-02-26T06:26:37;1.90;99.90
63771;DHT22;60282;43.862;18.430;2023-02-26T06:29:02;1.90;99.90
63771;DHT22;60282;43.862;18.430;2023-02-26T06:31:28;1.90;99.90
63771;DHT22;60282;43.862;18.430;2023-02-26T06:33:53;1.90;99.90
63771;DHT22;60282;43.862;18.430;2023-02-26T06:36:19;1.90;99.90
63771;DHT22;60282;43.862;18.430;2023-02-26T06:38:45;2.00;99.90
63771;DHT22;60282;43.862;18.430;2023-02-26T06:41:11;2.00;99.90
63771;DHT22;60282;43.862;18.430;2023-02-26T06:43:36;2.10;99.90
63771;DHT22;60282;43.862;18.430;2023-02-26T06:46:03;1.90;99.90
63771;DHT22;60282;43.862;18.430;2023-02-26T06:48:29;1.90;99.90
63771;DHT22;60282;43.862;18.430;2023-02-26T06:50:55;2.00;99.90
63771;DHT22;60282;43.862;18.430;2023-02-26T06:53:21;2.10;99.90
63771;DHT22;60282;43.862;18.430;2023-02-26T06:55:48;3.30;99.90
63771;DHT22;60282;43.862;18.430;2023-02-26T06:58:14;2.10;99.90
63771;DHT22;60282;43.862;18.430;2023-02-26T07:00:40;2.00;99.90
63771;DHT22;60282;43.862;18.430;2023-02-26T07:03:08;2.00;99.90
63771;DHT22;60282;43.862;18.430;2023-02-26T07:05:34;2.00;99.90
63771;DHT22;60282;43.862;18.430;2023-02-26T07:08:00;2.60;99.90
63771;DHT22;60282;43.862;18.430;2023-02-26T07:10:26;1.90;99.90
63771;DHT22;60282;43.862;18.430;2023-02-26T07:12:51;1.90;99.90
63771;DHT22;60282;43.862;18.430;2023-02-26T07:15:17;1.90;99.90
63771;DHT22;60282;43.862;18.430;2023-02-26T07:17:42;1.80;99.90
63771;DHT22;60282;43.862;18.430;2023-02-26T07:20:08;1.80;99.90
63771;DHT22;60282;43.862;18.430;2023-02-26T07:22:35;1.80;99.90
63771;DHT22;60282;43.862;18.430;2023-02-26T07:25:01;1.70;99.90
63771;DHT22;60282;43.862;18.430;2023-02-26T07:27:27;1.70;99.90
63771;DHT22;60282;43.862;18.430;2023-02-26T07:29:54;1.70;99.90
63771;DHT22;60282;43.862;18.430;2023-02-26T07:32:20;0.90;99.90
63771;DHT22;60282;43.862;18.430;2023-02-26T07:34:45;1.50;99.90
63771;DHT22;60282;43.862;18.430;2023-02-26T07:37:11;1.60;99.90
63771;DHT22;60282;43.862;18.430;2023-02-26T07:39:37;2.00;99.90
63771;DHT22;60282;43.862;18.430;2023-02-26T07:42:05;-0.60;99.90
63771;DHT22;60282;43.862;18.430;2023-02-26T07:44:34;1.80;99.90
63771;DHT22;60282;43.862;18.430;2023-02-26T07:47:21;1.80;99.90
63771;DHT22;60282;43.862;18.430;2023-02-26T07:49:46;1.30;99.90
63771;DHT22;60282;43.862;18.430;2023-02-26T07:52:19;2.70;99.90
63771;DHT22;60282;43.862;18.430;2023-02-26T07:54:45;1.20;99.90
63771;DHT22;60282;43.862;18.430;2023-02-26T07:57:10;4.60;99.90
63771;DHT22;60282;43.862;18.430;2023-02-26T07:59:36;2.20;99.90
63771;DHT22;60282;43.862;18.430;2023-02-26T08:02:03;2.40;99.90
63771;DHT22;60282;43.862;18.430;2023-02-26T08:04:29;2.40;99.90
63771;DHT22;60282;43.862;18.430;2023-02-26T08:06:58;2.20;99.90
63771;DHT22;60282;43.862;18.430;2023-02-26T08:09:23;2.60;99.90
63771;DHT22;60282;43.862;18.430;2023-02-26T08:11:50;3.00;99.90
63771;DHT22;60282;43.862;18.430;2023-02-26T08:14:16;2.60;99.90
63771;DHT22;60282;43.862;18.430;2023-02-26T08:16:42;2.60;99.90
63771;DHT22;60282;43.862;18.430;2023-02-26T08:19:07;2.20;99.90
63771;DHT22;60282;43.862;18.430;2023-02-26T08:21:33;1.70;99.90
63771;DHT22;60282;43.862;18.430;2023-02-26T08:23:59;1.80;99.90
63771;DHT22;60282;43.862;18.430;2023-02-26T08:26:25;3.70;99.90
63771;DHT22;60282;43.862;18.430;2023-02-26T08:28:53;1.80;99.90
63771;DHT22;60282;43.862;18.430;2023-02-26T08:31:20;1.70;99.90
63771;DHT22;60282;43.862;18.430;2023-02-26T08:33:46;1.70;99.90
63771;DHT22;60282;43.862;18.430;2023-02-26T08:36:11;1.70;99.90
63771;DHT22;60282;43.862;18.430;2023-02-26T08:38:37;1.60;99.90
63771;DHT22;60282;43.862;18.430;2023-02-26T08:41:03;1.60;99.90
63771;DHT22;60282;43.862;18.430;2023-02-26T08:43:29;1.50;99.90
63771;DHT22;60282;43.862;18.430;2023-02-26T08:45:55;1.50;99.90
63771;DHT22;60282;43.862;18.430;2023-02-26T08:48:22;1.60;99.90
63771;DHT22;60282;43.862;18.430;2023-02-26T08:50:47;1.60;99.90
63771;DHT22;60282;43.862;18.430;2023-02-26T08:53:13;2.10;99.90
63771;DHT22;60282;43.862;18.430;2023-02-26T08:55:46;1.50;99.90
63771;DHT22;60282;43.862;18.430;2023-02-26T08:58:11;1.40;99.90
63771;DHT22;60282;43.862;18.430;2023-02-26T09:00:37;1.80;99.90
63771;DHT22;60282;43.862;18.430;2023-02-26T09:03:02;1.80;99.90
63771;DHT22;60282;43.862;18.430;2023-02-26T09:05:28;2.00;99.90
63771;DHT22;60282;43.862;18.430;2023-02-26T09:07:54;2.50;99.90
63771;DHT22;60282;43.862;18.430;2023-02-26T09:10:19;2.10;99.90
63771;DHT22;60282;43.862;18.430;2023-02-26T09:12:45;2.30;99.90
63771;DHT22;60282;43.862;18.430;2023-02-26T09:15:12;2.50;99.90
63771;DHT22;60282;43.862;18.430;2023-02-26T09:17:39;2.70;99.90
63771;DHT22;60282;43.862;18.430;2023-02-26T09:20:04;2.80;99.90
63771;DHT22;60282;43.862;18.430;2023-02-26T09:22:35;3.00;99.90
63771;DHT22;60282;43.862;18.430;2023-02-26T09:25:01;2.90;99.90
63771;DHT22;60282;43.862;18.430;2023-02-26T09:27:27;3.20;99.90
63771;DHT22;60282;43.862;18.430;2023-02-26T09:29:53;3.30;99.90
63771;DHT22;60282;43.862;18.430;2023-02-26T09:32:19;3.00;99.90
63771;DHT22;60282;43.862;18.430;2023-02-26T09:34:44;3.30;99.90
63771;DHT22;60282;43.862;18.430;2023-02-26T09:37:10;3.10;99.90
63771;DHT22;60282;43.862;18.430;2023-02-26T09:39:36;3.20;99.90
63771;DHT22;60282;43.862;18.430;2023-02-26T09:42:10;3.30;99.90
63771;DHT22;60282;43.862;18.430;2023-02-26T09:44:39;3.30;99.90
63771;DHT22;60282;43.862;18.430;2023-02-26T09:54:46;3.70;99.90
63771;DHT22;60282;43.862;18.430;2023-02-26T09:57:14;3.80;99.90
63771;DHT22;60282;43.862;18.430;2023-02-26T09:59:44;3.80;99.90
63771;DHT22;60282;43.862;18.430;2023-02-26T10:08:03;4.00;99.90
63771;DHT22;60282;43.862;18.430;2023-02-26T10:10:37;4.00;99.90
63771;DHT22;60282;43.862;18.430;2023-02-26T10:13:16;4.10;99.90
63771;DHT22;60282;43.862;18.430;2023-02-26T10:15:42;4.00;99.90
63771;DHT22;60282;43.862;18.430;2023-02-26T10:18:10;2.00;99.90
63771;DHT22;60282;43.862;18.430;2023-02-26T10:20:42;3.80;99.90
63771;DHT22;60282;43.862;18.430;2023-02-26T10:25:48;3.60;99.90
63771;DHT22;60282;43.862;18.430;2023-02-26T10:28:32;3.30;99.90
63771;DHT22;60282;43.862;18.430;2023-02-26T10:33:56;0.10;99.90
63771;DHT22;60282;43.862;18.430;2023-02-26T10:36:27;2.90;99.90
63771;DHT22;60282;43.862;18.430;2023-02-26T10:38:59;3.30;99.90
63771;DHT22;60282;43.862;18.430;2023-02-26T10:41:27;2.80;99.90
63771;DHT22;60282;43.862;18.430;2023-02-26T10:51:17;3.10;99.90
63771;DHT22;60282;43.862;18.430;2023-02-26T10:53:50;2.90;99.90
63771;DHT22;60282;43.862;18.430;2023-02-26T10:56:31;3.30;99.90
63771;DHT22;60282;43.862;18.430;2023-02-26T10:58:57;2.90;99.90
63771;DHT22;60282;43.862;18.430;2023-02-26T11:01:24;2.80;99.90
63771;DHT22;60282;43.862;18.430;2023-02-26T11:03:53;2.70;99.90
63771;DHT22;60282;43.862;18.430;2023-02-26T11:06:21;2.70;99.90
63771;DHT22;60282;43.862;18.430;2023-02-26T11:08:51;2.70;99.90
63771;DHT22;60282;43.862;18.430;2023-02-26T11:11:34;2.60;99.90
63771;DHT22;60282;43.862;18.430;2023-02-26T11:14:01;2.70;99.90
63771;DHT22;60282;43.862;18.430;2023-02-26T11:16:26;2.70;99.90
63771;DHT22;60282;43.862;18.430;2023-02-26T11:18:59;2.70;99.90
63771;DHT22;60282;43.862;18.430;2023-02-26T11:21:32;2.70;99.90
63771;DHT22;60282;43.862;18.430;2023-02-26T11:26:31;2.70;99.90
63771;DHT22;60282;43.862;18.430;2023-02-26T11:28:58;2.80;99.90
63771;DHT22;60282;43.862;18.430;2023-02-26T11:31:25;2.60;99.90
63771;DHT22;60282;43.862;18.430;2023-02-26T11:34:04;2.50;99.90
63771;DHT22;60282;43.862;18.430;2023-02-26T11:36:31;2.40;99.90
63771;DHT22;60282;43.862;18.430;2023-02-26T11:39:13;2.30;99.90
63771;DHT22;60282;43.862;18.430;2023-02-26T11:41:43;2.30;99.90
63771;DHT22;60282;43.862;18.430;2023-02-26T11:44:10;2.30;99.90
63771;DHT22;60282;43.862;18.430;2023-02-26T11:46:46;2.30;99.90
63771;DHT22;60282;43.862;18.430;2023-02-26T11:49:16;2.30;99.90
63771;DHT22;60282;43.862;18.430;2023-02-26T11:51:46;0.30;99.90
63771;DHT22;60282;43.862;18.430;2023-02-26T11:54:21;3.80;99.90
63771;DHT22;60282;43.862;18.430;2023-02-26T11:56:47;4.90;99.90
63771;DHT22;60282;43.862;18.430;2023-02-26T12:01:41;2.90;99.90
63771;DHT22;60282;43.862;18.430;2023-02-26T12:04:08;1.80;99.90
63771;DHT22;60282;43.862;18.430;2023-02-26T12:06:34;3.60;99.90
63771;DHT22;60282;43.862;18.430;2023-02-26T12:09:01;2.80;99.90
63771;DHT22;60282;43.862;18.430;2023-02-26T12:11:40;2.90;99.90
63771;DHT22;60282;43.862;18.430;2023-02-26T12:23:01;2.90;99.90
63771;DHT22;60282;43.862;18.430;2023-02-26T12:27:32;3.10;99.90
63771;DHT22;60282;43.862;18.430;2023-02-26T12:30:37;3.10;99.90
63771;DHT22;60282;43.862;18.430;2023-02-26T12:39:35;2.80;99.90
63771;DHT22;60282;43.862;18.430;2023-02-26T12:49:31;2.60;99.90
63771;DHT22;60282;43.862;18.430;2023-02-26T12:54:54;2.50;99.90
63771;DHT22;60282;43.862;18.430;2023-02-26T12:57:35;2.40;99.90
63771;DHT22;60282;43.862;18.430;2023-02-26T13:00:12;2.40;99.90
63771;DHT22;60282;43.862;18.430;2023-02-26T13:05:34;2.30;99.90
63771;DHT22;60282;43.862;18.430;2023-02-26T13:15:52;2.30;99.90
63771;DHT22;60282;43.862;18.430;2023-02-26T13:21:24;2.40;99.90
63771;DHT22;60282;43.862;18.430;2023-02-26T13:26:26;2.50;99.90
63771;DHT22;60282;43.862;18.430;2023-02-26T13:31:21;2.60;99.90
63771;DHT22;60282;43.862;18.430;2023-02-26T13:33:47;2.60;99.90
63771;DHT22;60282;43.862;18.430;2023-02-26T13:36:32;2.60;99.90
63771;DHT22;60282;43.862;18.430;2023-02-26T13:44:07;3.90;99.90
63771;DHT22;60282;43.862;18.430;2023-02-26T13:49:15;2.40;99.90
63771;DHT22;60282;43.862;18.430;2023-02-26T13:51:43;1.20;99.90
63771;DHT22;60282;43.862;18.430;2023-02-26T13:59:23;2.40;99.90
63771;DHT22;60282;43.862;18.430;2023-02-26T14:01:52;2.40;99.90
63771;DHT22;60282;43.862;18.430;2023-02-26T14:06:44;2.50;99.90
63771;DHT22;60282;43.862;18.430;2023-02-26T14:15:17;2.60;99.90
63771;DHT22;60282;43.862;18.430;2023-02-26T14:17:28;2.70;99.90
63771;DHT22;60282;43.862;18.430;2023-02-26T14:27:23;2.40;99.90
63771;DHT22;60282;43.862;18.430;2023-02-26T14:34:56;4.00;99.90
63771;DHT22;60282;43.862;18.430;2023-02-26T14:37:24;2.20;99.90
63771;DHT22;60282;43.862;18.430;2023-02-26T14:39:57;2.20;99.90
63771;DHT22;60282;43.862;18.430;2023-02-26T14:45:01;2.10;99.90
63771;DHT22;60282;43.862;18.430;2023-02-26T14:47:28;2.10;99.90
63771;DHT22;60282;43.862;18.430;2023-02-26T14:49:53;2.00;99.90
63771;DHT22;60282;43.862;18.430;2023-02-26T15:00:45;2.20;99.90
63771;DHT22;60282;43.862;18.430;2023-02-26T15:05:43;2.20;99.90
63771;DHT22;60282;43.862;18.430;2023-02-26T15:13:36;2.20;99.90
63771;DHT22;60282;43.862;18.430;2023-02-26T15:18:48;2.10;99.90
63771;DHT22;60282;43.862;18.430;2023-02-26T15:23:46;2.10;99.90
63771;DHT22;60282;43.862;18.430;2023-02-26T15:26:32;2.10;99.90
63771;DHT22;60282;43.862;18.430;2023-02-26T15:28:58;2.00;99.90
63771;DHT22;60282;43.862;18.430;2023-02-26T15:31:30;2.00;99.90
63771;DHT22;60282;43.862;18.430;2023-02-26T15:33:56;0.50;99.90
63771;DHT22;60282;43.862;18.430;2023-02-26T15:36:22;2.00;99.90
63771;DHT22;60282;43.862;18.430;2023-02-26T15:38:54;1.90;99.90
63771;DHT22;60282;43.862;18.430;2023-02-26T15:41:21;-0.30;99.90
63771;DHT22;60282;43.862;18.430;2023-02-26T15:43:48;1.90;99.90
63771;DHT22;60282;43.862;18.430;2023-02-26T15:46:14;1.90;99.90
63771;DHT22;60282;43.862;18.430;2023-02-26T15:48:40;1.80;99.90
63771;DHT22;60282;43.862;18.430;2023-02-26T15:51:07;1.40;99.90
63771;DHT22;60282;43.862;18.430;2023-02-26T15:53:35;2.20;99.90
63771;DHT22;60282;43.862;18.430;2023-02-26T15:56:03;1.80;99.90
63771;DHT22;60282;43.862;18.430;2023-02-26T16:01:04;1.80;99.90
63771;DHT22;60282;43.862;18.430;2023-02-26T16:03:34;2.40;99.90
63771;DHT22;60282;43.862;18.430;2023-02-26T16:06:00;2.20;99.90
63771;DHT22;60282;43.862;18.430;2023-02-26T16:08:25;1.90;99.90
63771;DHT22;60282;43.862;18.430;2023-02-26T16:10:51;-0.30;99.90
63771;DHT22;60282;43.862;18.430;2023-02-26T16:13:22;1.80;99.90
63771;DHT22;60282;43.862;18.430;2023-02-26T16:15:48;1.70;99.90
63771;DHT22;60282;43.862;18.430;2023-02-26T16:18:14;-0.90;99.90
63771;DHT22;60282;43.862;18.430;2023-02-26T16:20:45;1.70;99.90
63771;DHT22;60282;43.862;18.430;2023-02-26T16:23:13;2.20;99.90
63771;DHT22;60282;43.862;18.430;2023-02-26T16:25:53;2.00;99.90
63771;DHT22;60282;43.862;18.430;2023-02-26T16:28:21;2.10;99.90
63771;DHT22;60282;43.862;18.430;2023-02-26T16:30:51;2.00;99.90
63771;DHT22;60282;43.862;18.430;2023-02-26T16:33:17;-1.30;99.90
63771;DHT22;60282;43.862;18.430;2023-02-26T16:35:53;1.60;99.90
63771;DHT22;60282;43.862;18.430;2023-02-26T16:38:20;1.80;99.90
63771;DHT22;60282;43.862;18.430;2023-02-26T16:40:53;1.60;99.90
63771;DHT22;60282;43.862;18.430;2023-02-26T16:43:41;1.70;99.90
63771;DHT22;60282;43.862;18.430;2023-02-26T16:46:13;1.70;99.90
63771;DHT22;60282;43.862;18.430;2023-02-26T16:49:14;1.70;99.90
63771;DHT22;60282;43.862;18.430;2023-02-26T16:51:34;2.30;99.90
63771;DHT22;60282;43.862;18.430;2023-02-26T16:54:04;1.70;99.90
63771;DHT22;60282;43.862;18.430;2023-02-26T16:56:32;1.70;99.90
63771;DHT22;60282;43.862;18.430;2023-02-26T16:59:04;1.60;99.90
63771;DHT22;60282;43.862;18.430;2023-02-26T17:01:34;1.70;99.90
63771;DHT22;60282;43.862;18.430;2023-02-26T17:04:00;1.70;99.90
63771;DHT22;60282;43.862;18.430;2023-02-26T17:06:28;1.70;99.90
63771;DHT22;60282;43.862;18.430;2023-02-26T17:08:56;1.60;99.90
63771;DHT22;60282;43.862;18.430;2023-02-26T17:11:23;1.60;99.90
63771;DHT22;60282;43.862;18.430;2023-02-26T17:14:03;1.60;99.90
63771;DHT22;60282;43.862;18.430;2023-02-26T17:16:32;1.50;99.90
63771;DHT22;60282;43.862;18.430;2023-02-26T17:18:58;1.50;99.90
63771;DHT22;60282;43.862;18.430;2023-02-26T17:21:25;1.40;99.90
63771;DHT22;60282;43.862;18.430;2023-02-26T17:23:50;1.40;99.90
63771;DHT22;60282;43.862;18.430;2023-02-26T17:26:16;1.90;99.90
63771;DHT22;60282;43.862;18.430;2023-02-26T17:28:42;1.80;99.90
63771;DHT22;60282;43.862;18.430;2023-02-26T17:31:07;0.30;99.90
63771;DHT22;60282;43.862;18.430;2023-02-26T17:33:33;1.40;99.90
63771;DHT22;60282;43.862;18.430;2023-02-26T17:36:00;1.40;99.90
63771;DHT22;60282;43.862;18.430;2023-02-26T17:38:26;1.50;99.90
63771;DHT22;60282;43.862;18.430;2023-02-26T17:40:52;1.50;99.90
63771;DHT22;60282;43.862;18.430;2023-02-26T17:43:20;2.30;99.90
63771;DHT22;60282;43.862;18.430;2023-02-26T17:45:46;1.80;99.90
63771;DHT22;60282;43.862;18.430;2023-02-26T17:48:15;1.40;99.90
63771;DHT22;60282;43.862;18.430;2023-02-26T17:50:43;1.30;99.90
63771;DHT22;60282;43.862;18.430;2023-02-26T17:53:11;1.40;99.90
63771;DHT22;60282;43.862;18.430;2023-02-26T17:55:37;1.40;99.90
63771;DHT22;60282;43.862;18.430;2023-02-26T17:58:04;1.60;99.90
63771;DHT22;60282;43.862;18.430;2023-02-26T18:00:30;1.40;99.90
63771;DHT22;60282;43.862;18.430;2023-02-26T18:02:57;1.50;99.90
63771;DHT22;60282;43.862;18.430;2023-02-26T18:05:26;1.50;99.90
63771;DHT22;60282;43.862;18.430;2023-02-26T18:07:52;1.50;99.90
63771;DHT22;60282;43.862;18.430;2023-02-26T18:10:19;1.20;99.90
63771;DHT22;60282;43.862;18.430;2023-02-26T18:12:46;1.50;99.90
63771;DHT22;60282;43.862;18.430;2023-02-26T18:15:12;1.50;99.90
63771;DHT22;60282;43.862;18.430;2023-02-26T18:17:39;1.50;99.90
63771;DHT22;60282;43.862;18.430;2023-02-26T18:20:05;1.50;99.90
63771;DHT22;60282;43.862;18.430;2023-02-26T18:22:31;1.50;99.90
63771;DHT22;60282;43.862;18.430;2023-02-26T18:24:58;1.40;99.90
63771;DHT22;60282;43.862;18.430;2023-02-26T18:27:24;1.40;99.90
63771;DHT22;60282;43.862;18.430;2023-02-26T18:29:50;1.40;99.90
63771;DHT22;60282;43.862;18.430;2023-02-26T18:32:18;1.30;99.90
63771;DHT22;60282;43.862;18.430;2023-02-26T18:34:43;1.30;99.90
63771;DHT22;60282;43.862;18.430;2023-02-26T18:37:12;4.40;99.90
63771;DHT22;60282;43.862;18.430;2023-02-26T18:39:39;1.20;99.90